sensor_id;sensor_type;location;lat;lon;timestamp;P1;durP1;ratioP1;P2;durP2;ratioP2
28862;SDS011;15994;51.796;13.006;2023-05-10T00:01:14;5.57;;;3.58;;
28862;SDS011;15994;51.796;13.006;2023-05-10T00:03:40;5.13;;;3.78;;
28862;SDS011;15994;51.796;13.006;2023-05-10T00:06:07;6.68;;;3.80;;
28862;SDS011;15994;51.796;13.006;2023-05-10T00:08:33;7.40;;;3.80;;
28862;SDS011;15994;51.796;13.006;2023-05-10T00:11:00;6.82;;;3.80;;
28862;SDS011;15994;51.796;13.006;2023-05-10T00:13:27;7.95;;;3.70;;
28862;SDS011;15994;51.796;13.006;2023-05-10T00:15:53;5.60;;;4.00;;
28862;SDS011;15994;51.796;13.006;2023-05-10T00:18:20;7.20;;;3.90;;
28862;SDS011;15994;51.796;13.006;2023-05-10T00:20:46;5.90;;;3.85;;
28862;SDS011;15994;51.796;13.006;2023-05-10T00:23:13;7.13;;;3.72;;
28862;SDS011;15994;51.796;13.006;2023-05-10T00:25:40;5.57;;;3.67;;
28862;SDS011;15994;51.796;13.006;2023-05-10T00:28:06;4.80;;;3.88;;
28862;SDS011;15994;51.796;13.006;2023-05-10T00:30:33;5.65;;;3.97;;
28862;SDS011;15994;51.796;13.006;2023-05-10T00:32:59;7.20;;;4.00;;
28862;SDS011;15994;51.796;13.006;2023-05-10T00:35:26;6.75;;;3.97;;
28862;SDS011;15994;51.796;13.006;2023-05-10T00:37:53;6.60;;;4.20;;
28862;SDS011;15994;51.796;13.006;2023-05-10T00:40:19;6.18;;;4.00;;
28862;SDS011;15994;51.796;13.006;2023-05-10T00:42:46;5.78;;;3.83;;
28862;SDS011;15994;51.796;13.006;2023-05-10T00:45:13;5.32;;;3.90;;
28862;SDS011;15994;51.796;13.006;2023-05-10T00:47:39;6.68;;;3.72;;
28862;SDS011;15994;51.796;13.006;2023-05-10T00:50:06;6.07;;;4.07;;
28862;SDS011;15994;51.796;13.006;2023-05-10T00:52:34;5.20;;;3.78;;
28862;SDS011;15994;51.796;13.006;2023-05-10T00:55:00;6.43;;;4.05;;
28862;SDS011;15994;51.796;13.006;2023-05-10T00:57:28;7.32;;;3.88;;
28862;SDS011;15994;51.796;13.006;2023-05-10T00:59:55;6.35;;;4.35;;
28862;SDS011;15994;51.796;13.006;2023-05-10T01:02:22;6.25;;;4.30;;
28862;SDS011;15994;51.796;13.006;2023-05-10T01:04:49;5.30;;;4.05;;
28862;SDS011;15994;51.796;13.006;2023-05-10T01:07:16;6.65;;;4.30;;
28862;SDS011;15994;51.796;13.006;2023-05-10T01:09:43;6.35;;;4.10;;
28862;SDS011;15994;51.796;13.006;2023-05-10T01:12:10;7.40;;;4.30;;
28862;SDS011;15994;51.796;13.006;2023-05-10T01:14:36;8.13;;;4.35;;
28862;SDS011;15994;51.796;13.006;2023-05-10T01:17:04;11.63;;;4.70;;
28862;SDS011;15994;51.796;13.006;2023-05-10T01:19:31;4.45;;;3.67;;
28862;SDS011;15994;51.796;13.006;2023-05-10T01:34:23;5.20;;;3.75;;
28862;SDS011;15994;51.796;13.006;2023-05-10T01:36:58;5.28;;;4.20;;
28862;SDS011;15994;51.796;13.006;2023-05-10T01:39:49;4.53;;;3.47;;
28862;SDS011;15994;51.796;13.006;2023-05-10T01:42:23;5.47;;;3.97;;
28862;SDS011;15994;51.796;13.006;2023-05-10T01:48:20;6.10;;;3.90;;
28862;SDS011;15994;51.796;13.006;2023-05-10T01:50:48;8.05;;;3.90;;
28862;SDS011;15994;51.796;13.006;2023-05-10T01:53:18;5.90;;;4.13;;
28862;SDS011;15994;51.796;13.006;2023-05-10T01:55:46;5.65;;;3.85;;
28862;SDS011;15994;51.796;13.006;2023-05-10T01:58:19;6.75;;;3.83;;
28862;SDS011;15994;51.796;13.006;2023-05-10T02:00:49;6.50;;;3.53;;
28862;SDS011;15994;51.796;13.006;2023-05-10T02:03:17;4.90;;;3.67;;
28862;SDS011;15994;51.796;13.006;2023-05-10T02:05:46;5.72;;;3.95;;
28862;SDS011;15994;51.796;13.006;2023-05-10T02:08:15;6.82;;;3.75;;
28862;SDS011;15994;51.796;13.006;2023-05-10T02:10:44;5.80;;;3.60;;
28862;SDS011;15994;51.796;13.006;2023-05-10T02:13:12;5.20;;;4.03;;
28862;SDS011;15994;51.796;13.006;2023-05-10T02:15:41;5.28;;;3.85;;
28862;SDS011;15994;51.796;13.006;2023-05-10T02:18:09;7.57;;;4.40;;
28862;SDS011;15994;51.796;13.006;2023-05-10T02:20:37;6.82;;;3.95;;
28862;SDS011;15994;51.796;13.006;2023-05-10T02:23:04;5.90;;;3.85;;
28862;SDS011;15994;51.796;13.006;2023-05-10T02:25:33;7.47;;;4.05;;
28862;SDS011;15994;51.796;13.006;2023-05-10T02:28:01;5.82;;;4.22;;
28862;SDS011;15994;51.796;13.006;2023-05-10T02:30:29;6.78;;;3.97;;
28862;SDS011;15994;51.796;13.006;2023-05-10T02:32:58;8.05;;;4.60;;
28862;SDS011;15994;51.796;13.006;2023-05-10T02:35:26;5.00;;;3.55;;
28862;SDS011;15994;51.796;13.006;2023-05-10T02:37:53;5.68;;;3.70;;
28862;SDS011;15994;51.796;13.006;2023-05-10T02:40:21;5.78;;;4.13;;
28862;SDS011;15994;51.796;13.006;2023-05-10T02:42:50;6.18;;;3.90;;
28862;SDS011;15994;51.796;13.006;2023-05-10T02:45:20;6.97;;;4.10;;
28862;SDS011;15994;51.796;13.006;2023-05-10T02:47:50;8.05;;;3.72;;
28862;SDS011;15994;51.796;13.006;2023-05-10T02:50:16;5.30;;;4.20;;
28862;SDS011;15994;51.796;13.006;2023-05-10T02:52:46;6.55;;;4.15;;
28862;SDS011;15994;51.796;13.006;2023-05-10T02:55:16;7.00;;;3.53;;
28862;SDS011;15994;51.796;13.006;2023-05-10T02:57:58;4.97;;;4.07;;
28862;SDS011;15994;51.796;13.006;2023-05-10T03:00:26;6.03;;;3.90;;
28862;SDS011;15994;51.796;13.006;2023-05-10T03:02:53;6.07;;;3.90;;
28862;SDS011;15994;51.796;13.006;2023-05-10T03:05:20;5.80;;;3.70;;
28862;SDS011;15994;51.796;13.006;2023-05-10T03:07:47;6.03;;;4.05;;
28862;SDS011;15994;51.796;13.006;2023-05-10T03:10:14;10.35;;;4.03;;
28862;SDS011;15994;51.796;13.006;2023-05-10T03:18:21;5.82;;;4.05;;
28862;SDS011;15994;51.796;13.006;2023-05-10T03:20:49;7.40;;;4.20;;
28862;SDS011;15994;51.796;13.006;2023-05-10T03:23:25;6.80;;;3.80;;
28862;SDS011;15994;51.796;13.006;2023-05-10T03:25:55;6.03;;;3.90;;
28862;SDS011;15994;51.796;13.006;2023-05-10T03:28:22;7.15;;;3.85;;
28862;SDS011;15994;51.796;13.006;2023-05-10T03:30:52;7.07;;;3.90;;
28862;SDS011;15994;51.796;13.006;2023-05-10T03:33:19;7.53;;;3.80;;
28862;SDS011;15994;51.796;13.006;2023-05-10T03:35:46;5.43;;;3.65;;
28862;SDS011;15994;51.796;13.006;2023-05-10T03:38:13;5.97;;;3.53;;
28862;SDS011;15994;51.796;13.006;2023-05-10T03:40:39;5.05;;;3.35;;
28862;SDS011;15994;51.796;13.006;2023-05-10T03:43:06;6.50;;;3.60;;
28862;SDS011;15994;51.796;13.006;2023-05-10T03:45:33;6.35;;;3.65;;
28862;SDS011;15994;51.796;13.006;2023-05-10T03:47:59;6.85;;;3.58;;
28862;SDS011;15994;51.796;13.006;2023-05-10T03:50:26;7.22;;;3.88;;
28862;SDS011;15994;51.796;13.006;2023-05-10T03:52:52;6.18;;;3.30;;
28862;SDS011;15994;51.796;13.006;2023-05-10T03:55:19;7.05;;;3.90;;
28862;SDS011;15994;51.796;13.006;2023-05-10T03:57:45;5.10;;;3.53;;
28862;SDS011;15994;51.796;13.006;2023-05-10T04:00:14;4.82;;;3.45;;
28862;SDS011;15994;51.796;13.006;2023-05-10T04:02:41;6.15;;;3.45;;
28862;SDS011;15994;51.796;13.006;2023-05-10T04:05:07;5.63;;;3.45;;
28862;SDS011;15994;51.796;13.006;2023-05-10T04:07:34;5.38;;;3.30;;
28862;SDS011;15994;51.796;13.006;2023-05-10T04:10:01;4.30;;;3.03;;
28862;SDS011;15994;51.796;13.006;2023-05-10T04:12:28;6.18;;;3.35;;
28862;SDS011;15994;51.796;13.006;2023-05-10T04:14:54;5.40;;;3.20;;
28862;SDS011;15994;51.796;13.006;2023-05-10T04:17:21;6.05;;;3.35;;
28862;SDS011;15994;51.796;13.006;2023-05-10T04:19:48;5.40;;;3.15;;
28862;SDS011;15994;51.796;13.006;2023-05-10T04:22:14;7.00;;;3.25;;
28862;SDS011;15994;51.796;13.006;2023-05-10T04:24:41;7.45;;;3.40;;
28862;SDS011;15994;51.796;13.006;2023-05-10T04:27:08;6.15;;;3.15;;
28862;SDS011;15994;51.796;13.006;2023-05-10T04:29:34;3.75;;;2.67;;
28862;SDS011;15994;51.796;13.006;2023-05-10T04:32:01;5.03;;;3.10;;
28862;SDS011;15994;51.796;13.006;2023-05-10T04:34:28;7.30;;;3.10;;
28862;SDS011;15994;51.796;13.006;2023-05-10T04:36:55;5.72;;;3.00;;
28862;SDS011;15994;51.796;13.006;2023-05-10T04:39:21;4.63;;;3.22;;
28862;SDS011;15994;51.796;13.006;2023-05-10T04:41:48;6.53;;;3.03;;
28862;SDS011;15994;51.796;13.006;2023-05-10T04:44:14;5.30;;;3.08;;
28862;SDS011;15994;51.796;13.006;2023-05-10T04:46:41;6.50;;;2.75;;
28862;SDS011;15994;51.796;13.006;2023-05-10T04:49:07;4.88;;;2.90;;
28862;SDS011;15994;51.796;13.006;2023-05-10T04:51:34;3.55;;;2.85;;
28862;SDS011;15994;51.796;13.006;2023-05-10T04:54:00;4.10;;;3.00;;
28862;SDS011;15994;51.796;13.006;2023-05-10T04:56:27;4.30;;;2.60;;
28862;SDS011;15994;51.796;13.006;2023-05-10T04:58:53;4.15;;;2.72;;
28862;SDS011;15994;51.796;13.006;2023-05-10T05:01:20;3.88;;;2.72;;
28862;SDS011;15994;51.796;13.006;2023-05-10T05:03:48;5.60;;;3.22;;
28862;SDS011;15994;51.796;13.006;2023-05-10T05:06:14;4.75;;;2.70;;
28862;SDS011;15994;51.796;13.006;2023-05-10T05:08:40;3.72;;;2.55;;
28862;SDS011;15994;51.796;13.006;2023-05-10T05:11:07;6.82;;;3.17;;
28862;SDS011;15994;51.796;13.006;2023-05-10T05:13:33;3.50;;;2.50;;
28862;SDS011;15994;51.796;13.006;2023-05-10T05:16:03;6.28;;;2.70;;
28862;SDS011;15994;51.796;13.006;2023-05-10T05:18:30;3.92;;;2.30;;
28862;SDS011;15994;51.796;13.006;2023-05-10T05:20:56;4.63;;;2.40;;
28862;SDS011;15994;51.796;13.006;2023-05-10T05:23:23;3.88;;;2.42;;
28862;SDS011;15994;51.796;13.006;2023-05-10T05:25:53;4.85;;;2.38;;
28862;SDS011;15994;51.796;13.006;2023-05-10T05:28:20;5.65;;;2.42;;
28862;SDS011;15994;51.796;13.006;2023-05-10T05:30:47;5.07;;;2.60;;
28862;SDS011;15994;51.796;13.006;2023-05-10T05:33:14;5.30;;;2.40;;
28862;SDS011;15994;51.796;13.006;2023-05-10T05:35:41;4.47;;;2.38;;
28862;SDS011;15994;51.796;13.006;2023-05-10T05:38:12;3.42;;;2.13;;
28862;SDS011;15994;51.796;13.006;2023-05-10T05:40:38;3.80;;;2.30;;
28862;SDS011;15994;51.796;13.006;2023-05-10T05:43:05;5.05;;;2.35;;
28862;SDS011;15994;51.796;13.006;2023-05-10T05:45:31;4.05;;;2.05;;
28862;SDS011;15994;51.796;13.006;2023-05-10T05:47:58;3.55;;;2.20;;
28862;SDS011;15994;51.796;13.006;2023-05-10T05:50:24;3.65;;;2.13;;
28862;SDS011;15994;51.796;13.006;2023-05-10T05:52:51;3.85;;;2.13;;
28862;SDS011;15994;51.796;13.006;2023-05-10T05:55:17;3.13;;;2.10;;
28862;SDS011;15994;51.796;13.006;2023-05-10T05:57:44;2.60;;;1.90;;
28862;SDS011;15994;51.796;13.006;2023-05-10T06:00:11;3.78;;;1.90;;
28862;SDS011;15994;51.796;13.006;2023-05-10T06:02:38;3.13;;;2.08;;
28862;SDS011;15994;51.796;13.006;2023-05-10T06:05:04;4.68;;;2.22;;
28862;SDS011;15994;51.796;13.006;2023-05-10T06:07:31;5.07;;;2.10;;
28862;SDS011;15994;51.796;13.006;2023-05-10T06:09:58;6.40;;;2.15;;
28862;SDS011;15994;51.796;13.006;2023-05-10T06:12:24;3.45;;;2.08;;
28862;SDS011;15994;51.796;13.006;2023-05-10T06:14:51;4.43;;;1.85;;
28862;SDS011;15994;51.796;13.006;2023-05-10T06:17:17;6.03;;;2.33;;
28862;SDS011;15994;51.796;13.006;2023-05-10T06:19:44;4.28;;;2.05;;
28862;SDS011;15994;51.796;13.006;2023-05-10T06:22:11;6.30;;;2.00;;
28862;SDS011;15994;51.796;13.006;2023-05-10T06:24:38;3.30;;;1.85;;
28862;SDS011;15994;51.796;13.006;2023-05-10T06:27:05;4.28;;;2.20;;
28862;SDS011;15994;51.796;13.006;2023-05-10T06:29:32;2.75;;;1.60;;
28862;SDS011;15994;51.796;13.006;2023-05-10T06:31:59;4.78;;;2.00;;
28862;SDS011;15994;51.796;13.006;2023-05-10T06:34:25;3.85;;;1.90;;
28862;SDS011;15994;51.796;13.006;2023-05-10T06:36:52;4.32;;;1.80;;
28862;SDS011;15994;51.796;13.006;2023-05-10T06:39:18;3.92;;;1.85;;
28862;SDS011;15994;51.796;13.006;2023-05-10T06:41:45;4.82;;;1.90;;
28862;SDS011;15994;51.796;13.006;2023-05-10T06:44:11;3.90;;;2.10;;
28862;SDS011;15994;51.796;13.006;2023-05-10T06:46:38;3.20;;;1.98;;
28862;SDS011;15994;51.796;13.006;2023-05-10T06:49:06;5.20;;;2.10;;
28862;SDS011;15994;51.796;13.006;2023-05-10T06:51:33;5.25;;;2.05;;
28862;SDS011;15994;51.796;13.006;2023-05-10T06:54:00;4.22;;;1.90;;
28862;SDS011;15994;51.796;13.006;2023-05-10T06:56:26;4.80;;;2.10;;
28862;SDS011;15994;51.796;13.006;2023-05-10T06:58:53;4.68;;;1.90;;
28862;SDS011;15994;51.796;13.006;2023-05-10T07:01:20;4.85;;;1.80;;
28862;SDS011;15994;51.796;13.006;2023-05-10T07:03:47;3.70;;;2.13;;
28862;SDS011;15994;51.796;13.006;2023-05-10T07:06:13;4.28;;;1.88;;
28862;SDS011;15994;51.796;13.006;2023-05-10T07:08:40;3.05;;;2.03;;
28862;SDS011;15994;51.796;13.006;2023-05-10T07:11:07;3.63;;;2.03;;
28862;SDS011;15994;51.796;13.006;2023-05-10T07:13:34;3.60;;;1.80;;
28862;SDS011;15994;51.796;13.006;2023-05-10T07:16:01;4.80;;;1.80;;
28862;SDS011;15994;51.796;13.006;2023-05-10T07:18:28;3.33;;;1.85;;
28862;SDS011;15994;51.796;13.006;2023-05-10T07:20:54;5.10;;;2.08;;
28862;SDS011;15994;51.796;13.006;2023-05-10T07:23:22;4.40;;;2.20;;
28862;SDS011;15994;51.796;13.006;2023-05-10T07:25:49;4.20;;;1.90;;
28862;SDS011;15994;51.796;13.006;2023-05-10T07:28:17;4.50;;;2.10;;
28862;SDS011;15994;51.796;13.006;2023-05-10T07:30:43;3.05;;;2.08;;
28862;SDS011;15994;51.796;13.006;2023-05-10T07:33:13;3.05;;;1.90;;
28862;SDS011;15994;51.796;13.006;2023-05-10T07:35:40;3.38;;;1.83;;
28862;SDS011;15994;51.796;13.006;2023-05-10T07:38:07;3.53;;;1.83;;
28862;SDS011;15994;51.796;13.006;2023-05-10T07:40:35;3.15;;;1.90;;
28862;SDS011;15994;51.796;13.006;2023-05-10T07:43:02;5.43;;;1.90;;
28862;SDS011;15994;51.796;13.006;2023-05-10T07:45:28;4.60;;;2.17;;
28862;SDS011;15994;51.796;13.006;2023-05-10T07:47:55;3.22;;;1.67;;
28862;SDS011;15994;51.796;13.006;2023-05-10T07:50:22;4.15;;;2.30;;
28862;SDS011;15994;51.796;13.006;2023-05-10T07:52:48;6.03;;;2.00;;
28862;SDS011;15994;51.796;13.006;2023-05-10T07:55:15;5.97;;;2.13;;
28862;SDS011;15994;51.796;13.006;2023-05-10T07:57:42;4.82;;;2.20;;
28862;SDS011;15994;51.796;13.006;2023-05-10T08:00:08;40.60;;;3.72;;
28862;SDS011;15994;51.796;13.006;2023-05-10T08:02:38;5.95;;;1.90;;
28862;SDS011;15994;51.796;13.006;2023-05-10T08:05:04;3.85;;;1.70;;
28862;SDS011;15994;51.796;13.006;2023-05-10T08:07:31;3.78;;;2.00;;
28862;SDS011;15994;51.796;13.006;2023-05-10T08:09:58;6.78;;;2.45;;
28862;SDS011;15994;51.796;13.006;2023-05-10T08:12:25;7.18;;;2.40;;
28862;SDS011;15994;51.796;13.006;2023-05-10T08:14:51;5.63;;;1.80;;
28862;SDS011;15994;51.796;13.006;2023-05-10T08:17:18;4.10;;;2.17;;
28862;SDS011;15994;51.796;13.006;2023-05-10T08:19:44;4.65;;;2.08;;
28862;SDS011;15994;51.796;13.006;2023-05-10T08:22:11;4.70;;;2.00;;
28862;SDS011;15994;51.796;13.006;2023-05-10T08:24:38;4.13;;;2.03;;
28862;SDS011;15994;51.796;13.006;2023-05-10T08:27:07;5.53;;;1.80;;
28862;SDS011;15994;51.796;13.006;2023-05-10T08:29:34;3.00;;;1.80;;
28862;SDS011;15994;51.796;13.006;2023-05-10T08:32:00;3.22;;;2.15;;
28862;SDS011;15994;51.796;13.006;2023-05-10T08:34:27;3.35;;;1.67;;
28862;SDS011;15994;51.796;13.006;2023-05-10T08:36:53;4.47;;;1.90;;
28862;SDS011;15994;51.796;13.006;2023-05-10T08:39:20;3.33;;;1.73;;
28862;SDS011;15994;51.796;13.006;2023-05-10T08:41:46;5.28;;;2.17;;
28862;SDS011;15994;51.796;13.006;2023-05-10T08:44:16;2.63;;;1.90;;
28862;SDS011;15994;51.796;13.006;2023-05-10T08:46:43;4.32;;;1.85;;
28862;SDS011;15994;51.796;13.006;2023-05-10T08:49:13;6.47;;;2.33;;
28862;SDS011;15994;51.796;13.006;2023-05-10T08:51:43;2.90;;;2.10;;
28862;SDS011;15994;51.796;13.006;2023-05-10T08:54:14;4.32;;;2.10;;
28862;SDS011;15994;51.796;13.006;2023-05-10T08:56:41;2.75;;;1.95;;
28862;SDS011;15994;51.796;13.006;2023-05-10T08:59:08;4.45;;;2.10;;
28862;SDS011;15994;51.796;13.006;2023-05-10T09:01:36;3.25;;;2.20;;
28862;SDS011;15994;51.796;13.006;2023-05-10T09:04:03;4.40;;;2.05;;
28862;SDS011;15994;51.796;13.006;2023-05-10T09:06:29;4.88;;;2.25;;
28862;SDS011;15994;51.796;13.006;2023-05-10T09:08:57;18.70;;;2.72;;
28862;SDS011;15994;51.796;13.006;2023-05-10T09:11:23;4.57;;;2.25;;
28862;SDS011;15994;51.796;13.006;2023-05-10T09:13:50;7.18;;;2.70;;
28862;SDS011;15994;51.796;13.006;2023-05-10T09:16:18;3.30;;;2.20;;
28862;SDS011;15994;51.796;13.006;2023-05-10T09:18:45;5.43;;;2.97;;
28862;SDS011;15994;51.796;13.006;2023-05-10T09:21:11;4.35;;;2.65;;
28862;SDS011;15994;51.796;13.006;2023-05-10T09:23:42;4.72;;;2.70;;
28862;SDS011;15994;51.796;13.006;2023-05-10T09:26:10;4.68;;;2.78;;
28862;SDS011;15994;51.796;13.006;2023-05-10T09:28:50;4.22;;;2.72;;
28862;SDS011;15994;51.796;13.006;2023-05-10T09:31:16;5.80;;;2.75;;
28862;SDS011;15994;51.796;13.006;2023-05-10T09:33:44;7.80;;;2.90;;
28862;SDS011;15994;51.796;13.006;2023-05-10T09:36:12;8.05;;;2.80;;
28862;SDS011;15994;51.796;13.006;2023-05-10T09:38:48;4.90;;;2.88;;
28862;SDS011;15994;51.796;13.006;2023-05-10T09:41:17;4.55;;;2.97;;
28862;SDS011;15994;51.796;13.006;2023-05-10T09:43:50;5.18;;;3.10;;
28862;SDS011;15994;51.796;13.006;2023-05-10T09:46:22;3.95;;;2.80;;
28862;SDS011;15994;51.796;13.006;2023-05-10T09:48:48;7.50;;;3.40;;
28862;SDS011;15994;51.796;13.006;2023-05-10T09:51:21;6.45;;;3.15;;
28862;SDS011;15994;51.796;13.006;2023-05-10T09:53:53;4.80;;;2.95;;
28862;SDS011;15994;51.796;13.006;2023-05-10T09:56:44;5.50;;;2.72;;
28862;SDS011;15994;51.796;13.006;2023-05-10T09:59:11;4.75;;;2.92;;
28862;SDS011;15994;51.796;13.006;2023-05-10T10:01:38;6.57;;;2.83;;
28862;SDS011;15994;51.796;13.006;2023-05-10T10:04:05;6.85;;;2.97;;
28862;SDS011;15994;51.796;13.006;2023-05-10T10:06:39;4.43;;;3.38;;
28862;SDS011;15994;51.796;13.006;2023-05-10T10:09:06;4.38;;;3.00;;
28862;SDS011;15994;51.796;13.006;2023-05-10T10:11:37;5.35;;;3.30;;
28862;SDS011;15994;51.796;13.006;2023-05-10T10:14:06;6.85;;;3.17;;
28862;SDS011;15994;51.796;13.006;2023-05-10T10:16:32;6.85;;;3.08;;
28862;SDS011;15994;51.796;13.006;2023-05-10T10:18:59;5.18;;;3.20;;
28862;SDS011;15994;51.796;13.006;2023-05-10T10:21:26;5.78;;;3.08;;
28862;SDS011;15994;51.796;13.006;2023-05-10T10:23:53;5.45;;;3.05;;
28862;SDS011;15994;51.796;13.006;2023-05-10T10:26:20;4.90;;;2.70;;
28862;SDS011;15994;51.796;13.006;2023-05-10T10:28:49;5.20;;;3.00;;
28862;SDS011;15994;51.796;13.006;2023-05-10T10:31:47;4.40;;;3.33;;
28862;SDS011;15994;51.796;13.006;2023-05-10T10:34:21;4.53;;;3.03;;
28862;SDS011;15994;51.796;13.006;2023-05-10T10:36:56;5.03;;;2.80;;
28862;SDS011;15994;51.796;13.006;2023-05-10T10:39:23;7.10;;;2.80;;
28862;SDS011;15994;51.796;13.006;2023-05-10T10:41:52;6.60;;;3.10;;
28862;SDS011;15994;51.796;13.006;2023-05-10T10:52:22;4.65;;;3.10;;
28862;SDS011;15994;51.796;13.006;2023-05-10T10:54:56;4.13;;;3.03;;
28862;SDS011;15994;51.796;13.006;2023-05-10T11:03:21;3.88;;;2.80;;
28862;SDS011;15994;51.796;13.006;2023-05-10T11:05:47;5.90;;;3.30;;
28862;SDS011;15994;51.796;13.006;2023-05-10T11:10:49;5.13;;;3.08;;
28862;SDS011;15994;51.796;13.006;2023-05-10T11:13:26;4.40;;;2.85;;
28862;SDS011;15994;51.796;13.006;2023-05-10T11:15:55;6.10;;;3.45;;
28862;SDS011;15994;51.796;13.006;2023-05-10T11:18:25;4.32;;;3.17;;
28862;SDS011;15994;51.796;13.006;2023-05-10T11:20:59;5.07;;;3.30;;
28862;SDS011;15994;51.796;13.006;2023-05-10T11:26:09;6.20;;;3.13;;
28862;SDS011;15994;51.796;13.006;2023-05-10T11:28:40;5.43;;;2.80;;
28862;SDS011;15994;51.796;13.006;2023-05-10T11:31:13;4.82;;;3.08;;
28862;SDS011;15994;51.796;13.006;2023-05-10T11:33:48;3.85;;;3.20;;
28862;SDS011;15994;51.796;13.006;2023-05-10T11:36:17;6.45;;;3.20;;
28862;SDS011;15994;51.796;13.006;2023-05-10T11:38:50;10.77;;;3.40;;
28862;SDS011;15994;51.796;13.006;2023-05-10T11:41:17;4.47;;;3.05;;
28862;SDS011;15994;51.796;13.006;2023-05-10T11:43:46;5.35;;;2.90;;
28862;SDS011;15994;51.796;13.006;2023-05-10T11:46:17;4.38;;;2.90;;
28862;SDS011;15994;51.796;13.006;2023-05-10T11:48:50;6.03;;;3.30;;
28862;SDS011;15994;51.796;13.006;2023-05-10T11:51:21;7.88;;;3.13;;
28862;SDS011;15994;51.796;13.006;2023-05-10T11:53:49;3.97;;;3.20;;
28862;SDS011;15994;51.796;13.006;2023-05-10T11:56:17;4.65;;;3.08;;
28862;SDS011;15994;51.796;13.006;2023-05-10T11:58:52;8.35;;;3.40;;
28862;SDS011;15994;51.796;13.006;2023-05-10T12:01:20;7.50;;;3.30;;
28862;SDS011;15994;51.796;13.006;2023-05-10T12:03:48;4.72;;;3.05;;
28862;SDS011;15994;51.796;13.006;2023-05-10T12:06:16;4.88;;;3.20;;
28862;SDS011;15994;51.796;13.006;2023-05-10T12:08:44;4.43;;;2.90;;
28862;SDS011;15994;51.796;13.006;2023-05-10T12:11:17;5.68;;;3.20;;
28862;SDS011;15994;51.796;13.006;2023-05-10T12:13:44;6.05;;;3.30;;
28862;SDS011;15994;51.796;13.006;2023-05-10T12:16:12;4.53;;;3.38;;
28862;SDS011;15994;51.796;13.006;2023-05-10T12:18:40;6.20;;;3.50;;
28862;SDS011;15994;51.796;13.006;2023-05-10T12:21:07;6.50;;;3.58;;
28862;SDS011;15994;51.796;13.006;2023-05-10T12:23:36;5.60;;;3.47;;
28862;SDS011;15994;51.796;13.006;2023-05-10T12:26:03;7.13;;;3.35;;
28862;SDS011;15994;51.796;13.006;2023-05-10T12:28:30;6.13;;;3.17;;
28862;SDS011;15994;51.796;13.006;2023-05-10T12:30:59;4.75;;;3.55;;
28862;SDS011;15994;51.796;13.006;2023-05-10T12:33:25;8.50;;;3.40;;
28862;SDS011;15994;51.796;13.006;2023-05-10T12:35:53;5.72;;;3.35;;
28862;SDS011;15994;51.796;13.006;2023-05-10T12:41:03;8.95;;;4.03;;
28862;SDS011;15994;51.796;13.006;2023-05-10T12:43:31;6.28;;;3.65;;
28862;SDS011;15994;51.796;13.006;2023-05-10T12:46:03;5.70;;;3.10;;
28862;SDS011;15994;51.796;13.006;2023-05-10T12:48:35;5.43;;;3.30;;
28862;SDS011;15994;51.796;13.006;2023-05-10T12:51:02;4.82;;;3.47;;
28862;SDS011;15994;51.796;13.006;2023-05-10T12:53:30;6.75;;;3.35;;
28862;SDS011;15994;51.796;13.006;2023-05-10T12:55:57;6.95;;;3.35;;
28862;SDS011;15994;51.796;13.006;2023-05-10T12:58:23;9.23;;;3.22;;
28862;SDS011;15994;51.796;13.006;2023-05-10T13:00:50;6.20;;;3.20;;
28862;SDS011;15994;51.796;13.006;2023-05-10T13:03:17;6.00;;;3.15;;
28862;SDS011;15994;51.796;13.006;2023-05-10T13:05:44;5.72;;;3.40;;
28862;SDS011;15994;51.796;13.006;2023-05-10T13:08:10;9.38;;;3.47;;
28862;SDS011;15994;51.796;13.006;2023-05-10T13:10:37;6.93;;;3.08;;
28862;SDS011;15994;51.796;13.006;2023-05-10T13:13:03;4.95;;;2.80;;
28862;SDS011;15994;51.796;13.006;2023-05-10T13:15:30;4.47;;;3.42;;
28862;SDS011;15994;51.796;13.006;2023-05-10T13:17:56;4.45;;;2.90;;
28862;SDS011;15994;51.796;13.006;2023-05-10T13:20:23;5.10;;;2.80;;
28862;SDS011;15994;51.796;13.006;2023-05-10T13:22:50;5.60;;;2.75;;
28862;SDS011;15994;51.796;13.006;2023-05-10T13:25:17;5.68;;;3.03;;
28862;SDS011;15994;51.796;13.006;2023-05-10T13:27:44;4.22;;;3.15;;
28862;SDS011;15994;51.796;13.006;2023-05-10T13:30:10;4.75;;;3.55;;
28862;SDS011;15994;51.796;13.006;2023-05-10T13:32:37;8.13;;;3.40;;
28862;SDS011;15994;51.796;13.006;2023-05-10T13:35:04;5.45;;;2.90;;
28862;SDS011;15994;51.796;13.006;2023-05-10T13:37:31;6.85;;;2.90;;
28862;SDS011;15994;51.796;13.006;2023-05-10T13:40:00;6.28;;;2.60;;
28862;SDS011;15994;51.796;13.006;2023-05-10T13:42:27;4.10;;;2.20;;
28862;SDS011;15994;51.796;13.006;2023-05-10T13:44:53;20.48;;;2.88;;
28862;SDS011;15994;51.796;13.006;2023-05-10T13:47:20;6.13;;;2.40;;
28862;SDS011;15994;51.796;13.006;2023-05-10T13:49:47;3.60;;;2.40;;
28862;SDS011;15994;51.796;13.006;2023-05-10T13:52:13;4.47;;;2.20;;
28862;SDS011;15994;51.796;13.006;2023-05-10T13:54:40;4.93;;;2.13;;
28862;SDS011;15994;51.796;13.006;2023-05-10T13:57:06;3.08;;;2.53;;
28862;SDS011;15994;51.796;13.006;2023-05-10T13:59:33;4.53;;;2.20;;
28862;SDS011;15994;51.796;13.006;2023-05-10T14:02:00;3.83;;;1.95;;
28862;SDS011;15994;51.796;13.006;2023-05-10T14:04:27;3.80;;;1.80;;
28862;SDS011;15994;51.796;13.006;2023-05-10T14:06:54;3.80;;;2.00;;
28862;SDS011;15994;51.796;13.006;2023-05-10T14:09:21;3.50;;;2.50;;
28862;SDS011;15994;51.796;13.006;2023-05-10T14:11:47;2.88;;;2.13;;
28862;SDS011;15994;51.796;13.006;2023-05-10T14:14:14;3.55;;;2.55;;
28862;SDS011;15994;51.796;13.006;2023-05-10T14:16:43;3.85;;;2.35;;
28862;SDS011;15994;51.796;13.006;2023-05-10T14:19:11;3.20;;;2.20;;
28862;SDS011;15994;51.796;13.006;2023-05-10T14:21:37;17.17;;;2.83;;
28862;SDS011;15994;51.796;13.006;2023-05-10T14:24:04;3.47;;;2.00;;
28862;SDS011;15994;51.796;13.006;2023-05-10T14:26:31;2.67;;;1.88;;
28862;SDS011;15994;51.796;13.006;2023-05-10T14:28:59;10.55;;;2.45;;
28862;SDS011;15994;51.796;13.006;2023-05-10T14:31:25;4.53;;;2.08;;
28862;SDS011;15994;51.796;13.006;2023-05-10T14:33:52;4.78;;;1.90;;
28862;SDS011;15994;51.796;13.006;2023-05-10T14:36:19;53.80;;;4.43;;
28862;SDS011;15994;51.796;13.006;2023-05-10T14:38:45;4.80;;;2.17;;
28862;SDS011;15994;51.796;13.006;2023-05-10T14:41:12;3.17;;;1.85;;
28862;SDS011;15994;51.796;13.006;2023-05-10T14:43:40;3.17;;;1.70;;
28862;SDS011;15994;51.796;13.006;2023-05-10T14:46:07;3.10;;;1.90;;
28862;SDS011;15994;51.796;13.006;2023-05-10T14:48:33;3.10;;;1.60;;
28862;SDS011;15994;51.796;13.006;2023-05-10T14:51:00;2.50;;;1.88;;
28862;SDS011;15994;51.796;13.006;2023-05-10T14:53:26;2.63;;;1.52;;
28862;SDS011;15994;51.796;13.006;2023-05-10T14:55:53;2.85;;;1.50;;
28862;SDS011;15994;51.796;13.006;2023-05-10T14:58:19;3.13;;;1.80;;
28862;SDS011;15994;51.796;13.006;2023-05-10T15:00:46;28.35;;;3.25;;
28862;SDS011;15994;51.796;13.006;2023-05-10T15:03:12;2.65;;;1.70;;
28862;SDS011;15994;51.796;13.006;2023-05-10T15:05:39;3.83;;;2.10;;
28862;SDS011;15994;51.796;13.006;2023-05-10T15:08:06;2.67;;;1.92;;
28862;SDS011;15994;51.796;13.006;2023-05-10T15:10:32;2.70;;;1.92;;
28862;SDS011;15994;51.796;13.006;2023-05-10T15:12:59;3.67;;;2.13;;
28862;SDS011;15994;51.796;13.006;2023-05-10T15:15:25;2.75;;;2.00;;
28862;SDS011;15994;51.796;13.006;2023-05-10T15:17:52;2.40;;;1.63;;
28862;SDS011;15994;51.796;13.006;2023-05-10T15:20:18;4.43;;;1.77;;